Abergavenny, United Kingdom
Current Conditions -  °F | °C
As of 5:50 AM on Monday 20 Oct 2014 (Local Time) from EGFF Reporting Station
Overcast Overcast  
Wind Chill: 55°   Ceiling: 3200
Heat Index: 55°   Visibility: 6mi
Dew Point: 54°   Wind: 14mph
Humidity: 94%   Direction: 260°W
Pressure: 30"   Gusts: NA
Location:  51.82°N, 3.02°W
Report Text: EGFF 200450Z AUTO 26012KT 9999 SCT013/// OVC032/// //////CB 13/12 Q1016 RERA
Loading
Personal Weather Stations






























Interactive Weather Map New forecast layout! Learn more

10-Day Weather Forecast

Advertisements
Track Severe Weather on mobile